Time;durP1;ratioP1;P1;durP2;ratioP2;P2;SDS_P1;SDS_P2;PMS_P1;PMS_P2;Temp;Humidity;BMP_temperature;BMP_pressure;BME280_temperature;BME280_humidity;BME280_pressure;Samples;Min_cycle;Max_cycle;Signal;HPM_P1;HPM_P2
2023/06/26 00:01:06;;;;;;;0.40;0.40;;;;;;;24.65;89.20;98951.22;5070953;28;20206;-63
2023/06/26 00:03:33;;;;;;;0.43;0.43;;;;;;;24.61;89.63;98950.69;5071134;28;20232;-63
2023/06/26 00:06:00;;;;;;;1.00;0.73;;;;;;;24.59;89.70;98947.38;5070895;28;20196;-63
2023/06/26 00:08:27;;;;;;;0.60;0.60;;;;;;;24.59;90.46;98943.97;5069917;28;20239;-64
2023/06/26 00:10:54;;;;;;;0.67;0.67;;;;;;;24.51;90.74;98942.88;5071174;28;20629;-63
2023/06/26 00:13:23;;;;;;;0.60;0.60;;;;;;;24.45;90.37;98940.84;5071198;28;20199;-63
2023/06/26 00:15:50;;;;;;;0.50;0.50;;;;;;;24.42;91.82;98942.94;5070985;28;20196;-63
2023/06/26 00:18:17;;;;;;;0.47;0.47;;;;;;;24.38;91.16;98946.78;5070925;28;20618;-63
2023/06/26 00:20:44;;;;;;;0.60;0.60;;;;;;;24.38;91.41;98952.88;5070968;28;20204;-63
2023/06/26 00:23:12;;;;;;;0.50;0.50;;;;;;;24.38;92.11;98950.25;5070850;28;20209;-63
2023/06/26 00:25:39;;;;;;;0.30;0.30;;;;;;;24.35;92.25;98955.78;5071049;28;20227;-63
2023/06/26 00:28:06;;;;;;;0.67;0.67;;;;;;;24.37;91.86;98955.63;5070610;28;20235;-63
2023/06/26 00:30:34;;;;;;;0.30;0.30;;;;;;;24.42;92.64;98945.53;5071088;28;20196;-63
2023/06/26 00:33:01;;;;;;;2.30;0.67;;;;;;;24.44;91.79;98946.22;5070685;28;20557;-63
2023/06/26 00:35:28;;;;;;;0.93;0.93;;;;;;;24.47;92.32;98951.16;5070946;28;20196;-63
2023/06/26 00:37:55;;;;;;;0.40;0.40;;;;;;;24.51;92.29;98952.53;5071042;28;20212;-63
2023/06/26 00:40:22;;;;;;;0.77;0.77;;;;;;;24.52;92.38;98948.94;5074584;28;20622;-63
2023/06/26 00:42:49;;;;;;;0.53;0.53;;;;;;;24.52;91.76;98943.72;5074613;28;20668;-63
2023/06/26 00:45:15;;;;;;;0.97;0.97;;;;;;;24.53;91.34;98951.41;5074210;28;20737;-63
2023/06/26 00:47:44;;;;;;;1.43;0.67;;;;;;;24.47;91.95;98935.44;5074791;28;20729;-63
2023/06/26 00:50:11;;;;;;;0.60;0.60;;;;;;;24.35;92.14;98941.84;5074329;28;20204;-63
2023/06/26 00:52:38;;;;;;;0.70;0.70;;;;;;;24.31;93.02;98946.53;5074723;28;20675;-64
2023/06/26 00:55:05;;;;;;;0.70;0.70;;;;;;;24.26;93.46;98942.72;5074182;28;20204;-63
2023/06/26 00:57:32;;;;;;;0.73;0.73;;;;;;;24.20;93.64;98938.84;5074341;28;20714;-63
2023/06/26 00:59:59;;;;;;;0.40;0.40;;;;;;;24.19;93.98;98936.41;5074193;28;20196;-63
2023/06/26 01:02:33;;;;;;;0.83;0.83;;;;;;;24.19;93.72;98936.41;5074194;28;20633;-63
2023/06/26 01:05:03;;;;;;;0.87;0.50;;;;;;;24.18;94.19;98937.34;5074335;28;20203;-63
2023/06/26 01:07:36;;;;;;;0.90;0.90;;;;;;;24.19;94.62;98931.16;5073761;28;20196;-63
2023/06/26 01:10:04;;;;;;;0.80;0.80;;;;;;;24.19;94.99;98936.41;5074070;28;20634;-63
2023/06/26 01:12:31;;;;;;;1.07;0.83;;;;;;;24.19;95.74;98931.97;5073923;28;20277;-63
2023/06/26 01:14:58;;;;;;;0.60;0.60;;;;;;;24.20;94.32;98919.72;5074037;28;20283;-63
2023/06/26 01:17:25;;;;;;;0.60;0.60;;;;;;;24.19;95.35;98920.69;5074078;28;20621;-63
2023/06/26 01:19:54;;;;;;;1.23;0.63;;;;;;;24.16;95.11;98918.34;5073908;28;20211;-63
2023/06/26 01:22:34;;;;;;;0.60;0.60;;;;;;;24.11;95.39;98916.13;5073827;28;20200;-63
2023/06/26 01:25:12;;;;;;;0.47;0.47;;;;;;;24.07;96.09;98919.19;5073714;28;20196;-63
2023/06/26 01:27:42;;;;;;;0.90;0.90;;;;;;;24.03;95.79;98914.22;5068549;28;20192;-63
2023/06/26 01:30:10;;;;;;;0.50;0.50;;;;;;;23.96;96.63;98910.53;5074140;28;20727;-63
2023/06/26 01:32:37;;;;;;;0.67;0.67;;;;;;;23.85;97.68;98912.47;5073604;28;20204;-63
2023/06/26 01:35:06;;;;;;;0.70;0.70;;;;;;;23.81;98.25;98906.69;5073623;28;20254;-63
2023/06/26 01:37:33;;;;;;;0.60;0.60;;;;;;;23.69;99.24;98901.75;5072580;28;20592;-63
2023/06/26 01:40:00;;;;;;;0.50;0.50;;;;;;;23.60;99.91;98906.06;5073707;28;20584;-63
2023/06/26 01:42:27;;;;;;;0.43;0.43;;;;;;;23.49;100.00;98903.56;5073313;28;20204;-63
2023/06/26 01:44:57;;;;;;;2.37;0.60;;;;;;;23.43;100.00;98896.28;5073625;28;20223;-62
2023/06/26 01:47:26;;;;;;;0.70;0.70;;;;;;;23.37;100.00;98897.66;5073111;28;20200;-63
2023/06/26 01:50:00;;;;;;;0.60;0.60;;;;;;;23.40;100.00;98912.25;5072187;28;20199;-63
2023/06/26 01:52:36;;;;;;;0.70;0.70;;;;;;;23.37;100.00;98910.72;5073069;28;20208;-63
2023/06/26 01:55:09;;;;;;;0.40;0.40;;;;;;;23.33;100.00;98911.13;5073278;28;20637;-63
2023/06/26 01:57:37;;;;;;;0.60;0.60;;;;;;;23.30;100.00;98900.94;5072936;28;20207;-63
2023/06/26 02:00:09;;;;;;;0.47;0.47;;;;;;;23.27;100.00;98903.84;5073321;28;20230;-63
2023/06/26 02:02:37;;;;;;;0.53;0.53;;;;;;;23.26;100.00;98910.88;5072961;28;20199;-63
2023/06/26 02:05:04;;;;;;;0.63;0.63;;;;;;;23.24;100.00;98906.72;5073150;28;20687;-63
2023/06/26 02:07:30;;;;;;;1.67;0.40;;;;;;;23.19;100.00;98917.63;5072796;28;20192;-63
2023/06/26 02:09:57;;;;;;;0.50;0.50;;;;;;;23.21;100.00;98912.25;5073123;28;20257;-63
2023/06/26 02:12:24;;;;;;;0.83;0.83;;;;;;;23.22;100.00;98904.28;5072987;28;20215;-63
2023/06/26 02:14:51;;;;;;;0.53;0.53;;;;;;;23.18;100.00;98902.06;5067540;28;20207;-63
2023/06/26 02:17:19;;;;;;;1.10;0.50;;;;;;;23.16;100.00;98904.00;5072711;28;20220;-63
2023/06/26 02:19:47;;;;;;;0.60;0.60;;;;;;;23.17;100.00;98900.41;5072574;28;20291;-63
2023/06/26 02:22:14;;;;;;;0.83;0.83;;;;;;;23.23;100.00;98900.66;5072877;28;20204;-63
2023/06/26 02:24:41;;;;;;;0.53;0.53;;;;;;;23.28;100.00;98900.28;5072550;28;20667;-63
2023/06/26 02:27:08;;;;;;;0.40;0.40;;;;;;;23.33;100.00;98890.19;5072628;28;20672;-63
2023/06/26 02:29:35;;;;;;;0.60;0.60;;;;;;;23.39;100.00;98889.66;5072189;28;20704;-64
2023/06/26 02:32:02;;;;;;;0.67;0.50;;;;;;;23.37;100.00;98871.50;5072934;28;20336;-63
2023/06/26 02:34:30;;;;;;;0.50;0.50;;;;;;;23.50;100.00;98884.31;5072708;28;20200;-63
2023/06/26 02:36:58;;;;;;;0.70;0.70;;;;;;;23.54;100.00;98885.69;5067285;28;20200;-63
2023/06/26 02:39:25;;;;;;;0.70;0.70;;;;;;;23.56;100.00;98880.28;5072322;28;20212;-63
2023/06/26 02:41:51;;;;;;;0.50;0.50;;;;;;;23.53;100.00;98886.63;5072240;28;20192;-63
2023/06/26 02:44:18;;;;;;;0.60;0.60;;;;;;;23.54;100.00;98883.06;5072424;28;20227;-63
2023/06/26 02:46:45;;;;;;;2.30;0.63;;;;;;;23.54;100.00;98888.31;5072293;28;20258;-63
2023/06/26 02:49:12;;;;;;;0.50;0.50;;;;;;;23.50;100.00;98886.91;5072345;28;20664;-63
2023/06/26 02:51:40;;;;;;;0.40;0.40;;;;;;;23.46;100.00;98880.31;5072028;28;20694;-63
2023/06/26 02:54:07;;;;;;;0.57;0.50;;;;;;;23.48;100.00;98884.47;5072078;28;20204;-63
2023/06/26 02:56:33;;;;;;;0.60;0.60;;;;;;;23.48;100.00;98891.47;5072063;28;20200;-64
2023/06/26 02:59:00;;;;;;;0.50;0.50;;;;;;;23.45;100.00;98889.16;5071972;28;20270;-63
2023/06/26 03:01:27;;;;;;;0.50;0.50;;;;;;;23.41;100.00;98888.59;5071678;28;20217;-63
2023/06/26 03:03:54;;;;;;;1.07;0.83;;;;;;;23.44;100.00;98892.72;5071782;28;20195;-63
2023/06/26 03:06:20;;;;;;;0.70;0.70;;;;;;;23.41;100.00;98898.22;5071760;28;20196;-64
2023/06/26 03:08:49;;;;;;;0.60;0.60;;;;;;;23.38;100.00;98899.31;5071578;28;20672;-63
2023/06/26 03:11:15;;;;;;;0.60;0.60;;;;;;;23.41;100.00;98903.47;5071851;28;20196;-64
2023/06/26 03:13:42;;;;;;;0.60;0.60;;;;;;;23.39;100.00;98898.31;5071440;28;20199;-63
2023/06/26 03:16:09;;;;;;;0.67;0.67;;;;;;;23.36;100.00;98895.19;5071684;28;20196;-64
2023/06/26 03:18:36;;;;;;;0.60;0.60;;;;;;;23.43;100.00;98904.97;5071610;28;20223;-64
2023/06/26 03:21:02;;;;;;;0.53;0.53;;;;;;;23.46;100.00;98906.47;5071578;28;20192;-63
2023/06/26 03:23:29;;;;;;;0.50;0.50;;;;;;;23.48;100.00;98920.25;5071631;28;20204;-63
2023/06/26 03:25:57;;;;;;;0.67;0.67;;;;;;;23.52;100.00;98913.78;5071450;28;20713;-63
2023/06/26 03:28:24;;;;;;;0.53;0.53;;;;;;;23.51;100.00;98917.38;5071550;28;20230;-63
2023/06/26 03:30:51;;;;;;;0.80;0.70;;;;;;;23.50;100.00;98915.69;5071306;28;20195;-63
2023/06/26 03:33:18;;;;;;;0.67;0.60;;;;;;;23.55;100.00;98910.91;5071507;28;20261;-64
2023/06/26 03:35:44;;;;;;;0.57;0.57;;;;;;;23.54;100.00;98919.69;5071387;28;20196;-63
2023/06/26 03:38:11;;;;;;;0.67;0.67;;;;;;;23.57;100.00;98913.34;5071011;28;20233;-63
2023/06/26 03:40:38;;;;;;;0.60;0.60;;;;;;;23.50;100.00;98913.09;5071293;28;20257;-63
2023/06/26 03:43:06;;;;;;;0.60;0.60;;;;;;;23.49;100.00;98916.66;5071115;28;20215;-63
2023/06/26 03:45:33;;;;;;;0.73;0.73;;;;;;;23.50;100.00;98915.69;5071659;28;20614;-63
2023/06/26 03:47:59;;;;;;;0.57;0.57;;;;;;;23.46;100.00;98922.16;5071213;28;20684;-63
2023/06/26 03:50:26;;;;;;;0.40;0.40;;;;;;;23.43;100.00;98914.59;5071346;28;20196;-63
2023/06/26 03:52:54;;;;;;;0.50;0.50;;;;;;;23.37;100.00;98910.72;5070937;28;20211;-63
2023/06/26 03:55:22;;;;;;;0.47;0.47;;;;;;;23.37;100.00;98912.50;5071378;28;20196;-63
2023/06/26 03:57:49;;;;;;;0.50;0.50;;;;;;;23.39;100.00;98915.84;5071077;28;20212;-63
2023/06/26 04:00:18;;;;;;;0.60;0.60;;;;;;;23.39;100.00;98911.41;5070920;28;20192;-63
2023/06/26 04:02:45;;;;;;;0.33;0.33;;;;;;;23.40;100.00;98909.66;5071184;28;20203;-63
2023/06/26 04:05:11;;;;;;;0.50;0.50;;;;;;;23.47;100.00;98919.44;5070906;28;20203;-63
2023/06/26 04:07:38;;;;;;;1.43;0.63;;;;;;;23.51;100.00;98909.50;5071005;28;20212;-63
2023/06/26 04:10:06;;;;;;;0.80;0.80;;;;;;;23.62;100.00;98909.34;5071083;28;20196;-63
2023/06/26 04:12:33;;;;;;;1.67;0.67;;;;;;;23.60;100.00;98908.66;5071172;28;20255;-63
2023/06/26 04:15:00;;;;;;;0.60;0.60;;;;;;;23.56;100.00;98907.28;5074427;28;20204;-63
2023/06/26 04:17:28;;;;;;;0.97;0.97;;;;;;;23.63;100.00;98908.38;5075162;28;20203;-63
2023/06/26 04:19:55;;;;;;;0.60;0.60;;;;;;;23.78;100.00;98911.41;5074898;28;20679;-63
2023/06/26 04:22:21;;;;;;;0.50;0.50;;;;;;;23.82;100.00;98900.50;5075236;28;20660;-64
2023/06/26 04:24:49;;;;;;;0.70;0.70;;;;;;;24.02;100.00;98907.34;5074923;28;20203;-63
2023/06/26 04:27:16;;;;;;;0.90;0.83;;;;;;;24.18;100.00;98908.53;5074893;28;20661;-63
2023/06/26 04:29:43;;;;;;;1.70;0.60;;;;;;;24.34;100.00;98908.75;5074700;28;20246;-63
2023/06/26 04:32:10;;;;;;;3.30;1.00;;;;;;;24.56;99.92;98913.59;5074791;28;20199;-63
2023/06/26 04:34:40;;;;;;;3.67;0.80;;;;;;;24.71;98.00;98912.16;5074832;28;20246;-63
2023/06/26 04:37:09;;;;;;;2.70;0.87;;;;;;;24.86;97.41;98918.56;5074908;28;20269;-63
2023/06/26 04:39:38;;;;;;;1.93;1.13;;;;;;;25.06;95.55;98914.00;5074747;28;20270;-64
2023/06/26 04:42:05;;;;;;;1.07;1.07;;;;;;;25.22;94.40;98918.59;5074731;28;20196;-64
2023/06/26 04:44:32;;;;;;;0.60;0.60;;;;;;;25.43;93.65;98924.34;5074987;28;20195;-64
2023/06/26 04:46:59;;;;;;;0.87;0.87;;;;;;;25.60;93.36;98923.53;5074559;28;20207;-64
2023/06/26 04:49:27;;;;;;;3.10;1.03;;;;;;;25.83;90.15;98924.69;5074511;28;20208;-63
2023/06/26 04:51:55;;;;;;;0.63;0.60;;;;;;;25.99;88.30;98932.66;5074766;28;20578;-63
2023/06/26 04:54:22;;;;;;;0.70;0.70;;;;;;;26.22;88.93;98926.91;5074589;28;20686;-64
2023/06/26 04:56:49;;;;;;;0.83;0.83;;;;;;;26.36;85.64;98934.22;5074671;28;20618;-63
2023/06/26 04:59:16;;;;;;;0.87;0.83;;;;;;;26.52;86.09;98947.44;5071358;28;20629;-63
2023/06/26 05:01:47;;;;;;;0.90;0.90;;;;;;;26.70;83.15;98950.78;5074304;28;20196;-64
2023/06/26 05:04:14;;;;;;;0.90;0.90;;;;;;;26.72;82.09;98948.81;5074175;28;20754;-64
2023/06/26 05:06:41;;;;;;;1.00;1.00;;;;;;;26.56;81.22;98957.44;5074509;28;20333;-64
2023/06/26 05:09:10;;;;;;;0.70;0.70;;;;;;;26.47;81.43;98957.56;5074195;28;20203;-63
2023/06/26 05:11:37;;;;;;;1.10;1.00;;;;;;;26.41;82.50;98958.22;5073975;28;20198;-64
2023/06/26 05:14:06;;;;;;;1.00;1.00;;;;;;;26.38;83.25;98953.28;5074045;28;20279;-64
2023/06/26 05:16:33;;;;;;;1.47;1.37;;;;;;;26.23;82.33;98967.97;5074240;28;20733;-64
2023/06/26 05:19:00;;;;;;;1.73;1.10;;;;;;;26.14;82.81;98967.06;5073895;28;20215;-64
2023/06/26 05:21:28;;;;;;;1.13;1.00;;;;;;;26.24;81.93;98961.72;5073731;28;20668;-63
2023/06/26 05:23:57;;;;;;;0.93;0.77;;;;;;;26.24;82.63;98962.56;5073963;28;20225;-63
2023/06/26 05:26:26;;;;;;;0.97;0.90;;;;;;;26.18;81.77;98946.59;5071068;28;20630;-63
2023/06/26 05:28:54;;;;;;;1.13;0.80;;;;;;;26.38;82.20;98969.88;5073930;28;20259;-63
2023/06/26 05:31:21;;;;;;;1.20;1.00;;;;;;;26.65;84.04;98960.97;5073556;28;20208;-63
2023/06/26 05:33:49;;;;;;;0.90;0.90;;;;;;;26.97;82.22;98966.34;5073783;28;20249;-64
2023/06/26 05:36:19;;;;;;;0.87;0.87;;;;;;;27.33;79.88;98960.81;5073621;28;20211;-63
2023/06/26 05:38:46;;;;;;;0.57;0.57;;;;;;;27.71;74.74;98969.91;5073372;28;20262;-64
2023/06/26 05:41:14;;;;;;;1.13;1.10;;;;;;;27.78;74.93;98966.47;5073373;28;20207;-63
2023/06/26 05:43:42;;;;;;;0.83;0.83;;;;;;;27.78;72.88;98969.09;5073163;28;20204;-63
2023/06/26 05:46:09;;;;;;;0.70;0.70;;;;;;;27.71;72.86;98981.28;5073302;28;20204;-64
2023/06/26 05:48:35;;;;;;;1.07;0.97;;;;;;;27.53;73.10;98968.25;5073531;28;20199;-64
2023/06/26 05:51:03;;;;;;;0.73;0.70;;;;;;;27.26;75.21;98973.00;5073481;28;20207;-64
2023/06/26 05:53:31;;;;;;;0.77;0.77;;;;;;;27.31;73.09;98979.41;5073217;28;20282;-64
2023/06/26 05:55:58;;;;;;;3.00;1.33;;;;;;;27.26;74.61;98976.44;5073391;28;20202;-63
2023/06/26 05:58:27;;;;;;;0.90;0.90;;;;;;;27.22;77.18;98969.84;5073410;28;20672;-63
2023/06/26 06:00:55;;;;;;;0.70;0.70;;;;;;;27.35;76.58;98964.09;5067839;28;20196;-64
2023/06/26 06:03:22;;;;;;;0.60;0.60;;;;;;;27.40;75.24;98975.00;5073257;28;20231;-64
2023/06/26 06:05:49;;;;;;;0.83;0.83;;;;;;;27.28;74.76;98978.91;5073053;28;20196;-63
2023/06/26 06:08:16;;;;;;;0.83;0.83;;;;;;;27.32;75.93;98969.69;5073027;28;20200;-63
2023/06/26 06:10:42;;;;;;;1.13;1.03;;;;;;;27.37;74.88;98985.81;5073205;28;20619;-64
2023/06/26 06:13:09;;;;;;;1.27;1.17;;;;;;;27.18;75.38;98973.78;5073114;28;20227;-64
2023/06/26 06:15:36;;;;;;;0.80;0.80;;;;;;;27.10;76.96;98977.25;5072745;28;20664;-64
2023/06/26 06:18:04;;;;;;;0.97;0.80;;;;;;;27.11;75.56;98972.78;5072931;28;20207;-63
2023/06/26 06:20:31;;;;;;;1.10;1.10;;;;;;;27.18;75.30;98973.78;5072554;28;20315;-63
2023/06/26 06:22:58;;;;;;;0.60;0.60;;;;;;;27.16;74.34;98967.03;5072918;28;20596;-63
2023/06/26 06:25:25;;;;;;;0.50;0.50;;;;;;;27.08;75.14;98963.41;5072739;28;20207;-63
2023/06/26 06:27:51;;;;;;;0.70;0.70;;;;;;;27.13;76.23;98976.09;5072333;28;20216;-63
2023/06/26 06:30:18;;;;;;;0.97;0.97;;;;;;;27.04;75.92;98969.16;5072520;28;20254;-63
2023/06/26 06:32:45;;;;;;;0.90;0.90;;;;;;;27.02;75.26;98969.31;5072441;28;20614;-64
2023/06/26 06:35:14;;;;;;;0.60;0.60;;;;;;;27.02;74.58;98971.13;5072537;28;20250;-64
2023/06/26 06:37:40;;;;;;;0.70;0.70;;;;;;;26.89;74.95;98973.38;5071811;28;20204;-64
2023/06/26 06:40:08;;;;;;;1.47;1.23;;;;;;;26.77;75.88;98967.56;5072410;28;20360;-64
2023/06/26 06:42:35;;;;;;;0.70;0.70;;;;;;;26.74;75.71;98967.91;5072552;28;20739;-64
2023/06/26 06:45:03;;;;;;;0.80;0.80;;;;;;;26.94;77.87;98966.69;5072241;28;20204;-64
2023/06/26 06:47:30;;;;;;;0.60;0.60;;;;;;;27.04;74.38;98969.97;5072135;28;20211;-63
2023/06/26 06:49:57;;;;;;;0.60;0.60;;;;;;;27.08;75.69;98968.66;5071897;28;20188;-64
2023/06/26 06:52:25;;;;;;;0.70;0.70;;;;;;;27.13;74.74;98976.09;5072185;28;20204;-64
2023/06/26 06:54:53;;;;;;;8.03;1.17;;;;;;;27.19;73.01;98975.44;5072106;28;20660;-63
2023/06/26 06:57:20;;;;;;;0.80;0.80;;;;;;;27.20;73.63;98965.75;5072197;28;20294;-63
2023/06/26 06:59:48;;;;;;;0.60;0.60;;;;;;;27.17;71.98;98956.38;5071918;28;20258;-64
2023/06/26 07:02:15;;;;;;;0.67;0.67;;;;;;;27.36;71.33;98976.28;5072255;28;20567;-64
2023/06/26 07:04:42;;;;;;;0.70;0.70;;;;;;;27.42;70.13;98978.28;5071596;28;20676;-63
2023/06/26 07:07:09;;;;;;;0.50;0.50;;;;;;;27.38;71.12;98969.06;5071602;28;20200;-64
2023/06/26 07:09:37;;;;;;;0.73;0.73;;;;;;;27.37;70.64;98967.41;5071793;28;20257;-63
2023/06/26 07:12:05;;;;;;;0.60;0.60;;;;;;;27.49;72.83;98955.59;5071789;28;20200;-64
2023/06/26 07:14:32;;;;;;;1.23;1.20;;;;;;;27.65;71.61;98960.88;5071782;28;20668;-64
2023/06/26 07:16:59;;;;;;;1.80;0.90;;;;;;;27.67;69.16;98960.69;5071447;28;20191;-64
2023/06/26 07:19:25;;;;;;;0.97;0.90;;;;;;;27.63;69.61;98962.84;5071641;28;20273;-63
2023/06/26 07:21:52;;;;;;;0.60;0.60;;;;;;;27.66;69.15;98962.50;5071723;28;20261;-64
2023/06/26 07:24:19;;;;;;;1.37;1.27;;;;;;;27.69;68.15;98956.91;5071881;28;20634;-64
2023/06/26 07:26:47;;;;;;;0.67;0.67;;;;;;;27.82;68.35;98962.50;5071674;28;20214;-64
2023/06/26 07:29:14;;;;;;;0.93;0.93;;;;;;;28.04;69.31;98963.63;5071133;28;20224;-64
2023/06/26 07:31:40;;;;;;;0.70;0.70;;;;;;;28.35;67.28;98961.09;5071364;28;20199;-64
2023/06/26 07:34:07;;;;;;;0.87;0.87;;;;;;;28.42;65.17;98960.28;5071426;28;20702;-64
2023/06/26 07:36:34;;;;;;;0.63;0.63;;;;;;;28.48;67.24;98958.75;5071513;28;20191;-64
2023/06/26 07:39:01;;;;;;;0.80;0.80;;;;;;;28.41;64.89;98958.63;5068740;28;20216;-64
2023/06/26 07:41:29;;;;;;;0.60;0.60;;;;;;;28.43;67.15;98966.38;5071218;28;20199;-64
2023/06/26 07:43:58;;;;;;;0.80;0.80;;;;;;;28.33;65.05;98945.47;5071373;28;20687;-64
2023/06/26 07:46:25;;;;;;;0.70;0.70;;;;;;;28.52;64.38;98960.06;5070094;28;20572;-64
2023/06/26 07:48:51;;;;;;;0.77;0.77;;;;;;;28.55;64.25;98960.56;5070399;28;20192;-64
2023/06/26 07:51:18;;;;;;;1.33;0.90;;;;;;;28.58;65.06;98960.22;5071105;28;20222;-64
2023/06/26 07:53:45;;;;;;;0.90;0.90;;;;;;;28.56;64.94;98956.91;5071114;28;20196;-64
2023/06/26 07:56:12;;;;;;;0.40;0.40;;;;;;;28.40;63.60;98951.69;5071186;28;20253;-64
2023/06/26 07:58:38;;;;;;;0.57;0.57;;;;;;;28.39;63.67;98962.41;5071073;28;20665;-64
2023/06/26 08:01:07;;;;;;;0.70;0.70;;;;;;;28.09;65.13;98951.63;5070916;28;20219;-64
2023/06/26 08:03:33;;;;;;;0.67;0.67;;;;;;;27.94;66.53;98977.00;5071042;28;20212;-64
2023/06/26 08:06:00;;;;;;;0.80;0.80;;;;;;;27.83;66.24;98979.94;5071013;28;20282;-64
2023/06/26 08:08:27;;;;;;;0.40;0.40;;;;;;;27.69;67.90;98975.34;5070838;28;20203;-65
2023/06/26 08:10:54;;;;;;;0.90;0.90;;;;;;;27.66;66.44;98970.41;5071053;28;20192;-64
2023/06/26 08:13:21;;;;;;;0.60;0.60;;;;;;;27.72;66.90;98977.66;5070672;28;20226;-64
2023/06/26 08:15:48;;;;;;;0.80;0.80;;;;;;;27.77;67.51;98972.72;5071161;28;20199;-64
2023/06/26 08:18:16;;;;;;;0.97;0.97;;;;;;;27.80;66.50;98967.13;5071042;28;20575;-64
2023/06/26 08:20:43;;;;;;;0.83;0.83;;;;;;;27.84;67.15;98971.06;5070855;28;20218;-64
2023/06/26 08:23:10;;;;;;;0.73;0.73;;;;;;;27.76;65.75;98952.63;5070756;28;20207;-64
2023/06/26 08:25:37;;;;;;;1.03;1.00;;;;;;;27.95;67.43;98968.06;5070766;28;20188;-64
2023/06/26 08:28:04;;;;;;;0.80;0.80;;;;;;;28.05;65.71;98966.13;5070661;28;20228;-64
2023/06/26 08:30:30;;;;;;;0.67;0.67;;;;;;;28.20;64.32;98965.44;5070929;28;20238;-63
2023/06/26 08:32:57;;;;;;;0.70;0.70;;;;;;;28.38;62.45;98961.59;5070890;28;20206;-63
2023/06/26 08:35:25;;;;;;;0.50;0.50;;;;;;;28.67;63.65;98959.22;5070554;28;20745;-64
2023/06/26 08:37:54;;;;;;;0.60;0.60;;;;;;;28.69;62.55;98935.31;5070794;28;20199;-64
2023/06/26 08:40:22;;;;;;;0.60;0.60;;;;;;;28.93;62.55;98961.56;5070901;28;20696;-63
2023/06/26 08:42:52;;;;;;;0.63;0.63;;;;;;;28.99;62.60;98960.84;5071024;28;20196;-64
2023/06/26 08:45:19;;;;;;;1.00;1.00;;;;;;;29.06;62.16;98959.16;5070707;28;20196;-64
2023/06/26 08:47:49;;;;;;;0.77;0.77;;;;;;;29.17;60.34;98955.31;5070688;28;20207;-64
2023/06/26 08:50:19;;;;;;;1.10;0.60;;;;;;;29.24;60.72;98955.44;5070620;28;20196;-64
2023/06/26 08:52:57;;;;;;;0.60;0.60;;;;;;;29.21;59.50;98955.78;5070477;28;20204;-64
2023/06/26 08:55:27;;;;;;;0.60;0.60;;;;;;;29.23;59.04;98954.63;5070820;28;20219;-64
2023/06/26 08:57:54;;;;;;;0.63;0.63;;;;;;;29.22;59.28;98954.78;5067203;28;20545;-64
2023/06/26 09:00:21;;;;;;;0.77;0.77;;;;;;;29.22;59.49;98958.25;5072664;28;20212;-64
2023/06/26 09:02:48;;;;;;;0.50;0.50;;;;;;;29.22;58.64;98938.94;5074123;28;20258;-63
2023/06/26 09:05:15;;;;;;;0.85;0.68;;;;;;;29.14;60.01;98951.19;5074112;28;20196;-63
2023/06/26 09:07:42;;;;;;;2.63;0.87;;;;;;;29.09;57.67;98947.44;5073898;28;20192;-64
2023/06/26 09:10:10;;;;;;;0.60;0.60;;;;;;;29.12;58.50;98947.09;5074296;28;20220;-64
2023/06/26 09:12:38;;;;;;;1.17;0.50;;;;;;;29.00;59.28;98949.31;5073913;28;20200;-64
2023/06/26 09:15:06;;;;;;;0.97;0.93;;;;;;;29.00;58.64;98954.59;5074200;28;20641;-64
2023/06/26 09:17:39;;;;;;;0.53;0.53;;;;;;;29.01;58.11;98961.53;5073941;28;20200;-63
2023/06/26 09:20:07;;;;;;;1.33;0.90;;;;;;;29.04;58.77;98955.91;5074002;28;20211;-64
2023/06/26 09:22:38;;;;;;;1.67;1.00;;;;;;;28.76;60.35;98922.25;5073893;28;20230;-64
2023/06/26 09:25:06;;;;;;;1.10;1.00;;;;;;;28.96;59.85;98953.28;5070371;28;20200;-63
2023/06/26 09:27:35;;;;;;;0.50;0.50;;;;;;;28.91;59.94;98947.72;5073613;28;20204;-64
2023/06/26 09:30:03;;;;;;;0.80;0.80;;;;;;;28.88;61.68;98963.91;5073960;28;20249;-63
2023/06/26 09:32:30;;;;;;;1.13;0.67;;;;;;;28.85;61.48;98964.25;5073624;28;20204;-64
2023/06/26 09:34:57;;;;;;;0.40;0.40;;;;;;;28.77;61.52;98966.09;5073762;28;20203;-64
2023/06/26 09:37:24;;;;;;;0.93;0.70;;;;;;;28.64;61.78;98966.59;5073710;28;20200;-64
2023/06/26 09:39:52;;;;;;;1.23;0.83;;;;;;;28.63;60.13;98968.41;5073648;28;20220;-64
2023/06/26 09:42:19;;;;;;;0.70;0.70;;;;;;;28.59;59.07;98971.59;5073589;28;20200;-64
2023/06/26 09:44:48;;;;;;;0.53;0.53;;;;;;;28.45;57.74;98969.66;5073597;28;20192;-64
2023/06/26 09:47:17;;;;;;;0.40;0.40;;;;;;;28.54;59.47;98979.16;5073557;28;20192;-64
2023/06/26 09:49:45;;;;;;;0.90;0.50;;;;;;;28.55;61.39;98970.28;5073205;28;20283;-64
2023/06/26 09:52:16;;;;;;;1.80;0.87;;;;;;;28.54;62.16;98969.44;5073442;28;20226;-63
2023/06/26 09:54:44;;;;;;;0.50;0.50;;;;;;;28.58;64.16;98969.94;5073323;28;20224;-64
2023/06/26 09:57:13;;;;;;;0.40;0.40;;;;;;;28.30;65.09;98974.00;5073367;28;20199;-64
2023/06/26 09:59:40;;;;;;;0.50;0.50;;;;;;;28.13;65.08;98971.38;5073054;28;20685;-63
2023/06/26 10:02:10;;;;;;;0.30;0.30;;;;;;;28.20;64.82;98965.44;5073102;28;20231;-64
2023/06/26 10:04:37;;;;;;;0.40;0.40;;;;;;;28.03;65.89;98968.09;5073604;28;20223;-64
2023/06/26 10:07:07;;;;;;;0.50;0.50;;;;;;;28.14;67.78;98959.03;5072970;28;20291;-63
2023/06/26 10:09:37;;;;;;;0.70;0.70;;;;;;;28.05;68.09;98952.94;5073052;28;20680;-63
2023/06/26 10:12:07;;;;;;;0.40;0.40;;;;;;;28.20;66.59;98949.63;5071873;28;20193;-64
2023/06/26 10:14:36;;;;;;;0.57;0.57;;;;;;;28.53;66.70;98943.25;5072875;28;20257;-63
2023/06/26 10:17:07;;;;;;;0.50;0.50;;;;;;;28.74;66.71;98932.97;5072624;28;20231;-64
2023/06/26 10:19:37;;;;;;;0.47;0.40;;;;;;;29.14;64.84;98937.19;5072812;28;20287;-64
2023/06/26 10:22:05;;;;;;;1.97;0.70;;;;;;;29.33;61.96;98943.84;5072645;28;20257;-64
2023/06/26 10:24:36;;;;;;;5.80;0.60;;;;;;;29.59;59.96;98928.44;5072689;28;20203;-64
2023/06/26 10:27:08;;;;;;;0.40;0.40;;;;;;;29.97;62.98;98932.75;5072744;28;20208;-65
2023/06/26 10:29:37;;;;;;;1.23;0.70;;;;;;;30.32;58.21;98938.31;5072353;28;20227;-65
2023/06/26 10:32:06;;;;;;;0.65;0.65;;;;;;;30.56;55.84;98938.88;5072506;28;20614;-65
2023/06/26 10:34:33;;;;;;;0.82;0.60;;;;;;;30.78;52.45;98931.81;5072534;28;20664;-65
2023/06/26 10:37:02;;;;;;;3.67;0.82;;;;;;;31.04;50.85;98933.94;5072235;28;20634;-64
2023/06/26 10:39:46;;;;;;;0.70;0.70;;;;;;;31.21;51.15;98907.03;5072664;28;20230;-65
2023/06/26 10:42:14;;;;;;;0.30;0.30;;;;;;;31.54;47.87;98917.13;5071112;28;20250;-65
2023/06/26 10:44:42;;;;;;;1.13;0.50;;;;;;;31.71;46.64;98907.88;5072332;28;20228;-65
2023/06/26 10:47:09;;;;;;;0.40;0.40;;;;;;;31.89;48.72;98907.41;5072289;28;20211;-64
2023/06/26 10:49:39;;;;;;;0.65;0.65;;;;;;;31.95;47.76;98906.63;5072132;28;20647;-65
2023/06/26 10:52:08;;;;;;;0.60;0.60;;;;;;;32.00;47.00;98907.69;5072170;28;20646;-66
2023/06/26 10:54:35;;;;;;;0.45;0.45;;;;;;;31.91;46.18;98908.03;5072337;28;20196;-66
2023/06/26 10:57:03;;;;;;;0.50;0.50;;;;;;;31.87;45.92;98907.59;5072029;28;20199;-65
2023/06/26 10:59:31;;;;;;;0.28;0.28;;;;;;;31.81;44.79;98913.66;5072386;28;20204;-65
2023/06/26 11:02:00;;;;;;;0.55;0.55;;;;;;;31.62;44.53;98915.16;5071773;28;20692;-65
2023/06/26 11:04:40;;;;;;;0.30;0.30;;;;;;;31.54;46.02;98917.94;5072050;28;20218;-64
2023/06/26 11:07:19;;;;;;;0.60;0.60;;;;;;;31.30;45.34;98912.22;5071937;28;20273;-64
2023/06/26 11:09:57;;;;;;;0.57;0.57;;;;;;;31.31;44.86;98911.22;5071962;28;20195;-65
2023/06/26 11:12:38;;;;;;;0.80;0.80;;;;;;;31.35;45.55;98909.78;5070705;28;20660;-64
2023/06/26 11:15:08;;;;;;;0.45;0.45;;;;;;;31.46;46.86;98914.59;5072075;28;20257;-65
2023/06/26 11:17:36;;;;;;;0.50;0.50;;;;;;;31.56;46.30;98909.81;5071796;28;20200;-64
2023/06/26 11:20:04;;;;;;;0.70;0.60;;;;;;;31.51;45.36;98907.72;5071690;28;20668;-64
2023/06/26 11:22:35;;;;;;;0.90;0.60;;;;;;;31.36;45.38;98903.50;5071554;28;20196;-64
2023/06/26 11:25:02;;;;;;;0.50;0.50;;;;;;;31.47;48.07;98898.47;5070342;28;20233;-64
2023/06/26 11:27:32;;;;;;;0.50;0.50;;;;;;;31.70;48.36;98899.09;5071465;28;20592;-64
2023/06/26 11:30:00;;;;;;;0.50;0.50;;;;;;;31.74;53.14;98891.59;5071413;28;20246;-64
2023/06/26 11:32:27;;;;;;;0.40;0.40;;;;;;;31.74;51.22;98896.91;5071277;28;20210;-65
2023/06/26 11:34:54;;;;;;;0.60;0.60;;;;;;;31.36;51.67;98887.59;5071351;28;20242;-65